Mumford, NY (14511)

11:01 AM EST on February 14, 2016 (GMT -0500)
Mumford | | Change Station
CLOSE
Current Station
Personal Weather Station
Location: Scottsville, NY
Elevation: 600 ft
Nearby Weather Stations

Elev 600 ft 43.00 °N, 77.85 °W | Updated 12 seconds ago

Partly Cloudy
Partly Cloudy
1.8 °F
Feels Like -8 °F
N
4.9
Wind Variable Wind from North
Gusts 4.9 mph

Today
High -- | Low -- °F
--% Chance of Precip.
Yesterday
High -- | Low -- °F
Precip. -- in
Pressure 30.60 in
Visibility 10.0 miles
Clouds Few 2000 ft
Windchill -8 °F
Dew Point -20 °F
Humidity 35%
Rainfall 0.00 in
Snow Depth Not available.
7:11 AM 5:40 PM
Waxing Crescent, 43% visible
METAR KROC 141554Z 22005KT 10SM FEW020 M18/M23 A3054 RMK AO2 SLP361 P0001 T11781228
Pressure 30.60 in
Visibility 10.0 miles
Clouds Few 2000 ft
Windchill -8 °F
Dew Point -20 °F
Humidity 35%
Rainfall 0.00 in
Snow Depth Not available.
7:11 AM 5:40 PM
Waxing Crescent, 43% visible
METAR KROC 141554Z 22005KT 10SM FEW020 M18/M23 A3054 RMK AO2 SLP361 P0001 T11781228

10-Day Weather Forecast

Almanac

Astronomy

Feb. 14, 2016 Rise Set
Actual Time
Civil Twilight
Nautical Twilight
Astronomical Twilight
Moon
Length of Visible Light
Length of Day
Tomorrow will be .
, % of the Moon is Illuminated

Today's Extremes

State Highs State Lows

Community

WunderPhotos

Upload Photos

1,892,819 photos uploaded!

WunderBlog® & News

Nearby

Air Quality

  Air Quality AQ Index Pollutant
Not available.

Snow Depth

Station Depth Elevation

Earthquake Activity

City Distance Mag. Time & Date
Minimum magnitude displayed is 2.5.

Coastal Water Temperatures

Place Temperature

Stations

Nearby Weather Stations

Station Location Temp. Windchill Dew Point Humidity Wind Precip. Elev Updated Type
                   

Watches & Warnings

There are currently no watches in effect.